Strona główna
METAR-TAF:

METAR-TAF

Lotnisko :

DuBois / Falls Creek, Pensylwania, Stany Zjednoczone

Szerokość geograficzna: 41-11N, Długość geograficzna: 078-54W, wysokość: 555 m

Aktualna obserwacja pogody

Raport powstał 16 minut temu, godzina 08:53 UTC
Cisza
Temperatura 11°C
Wilgotność 82%
Ciśnienie 1016 hPa
Widzialność: 16.1 km
bezchmurnie

METAR: KDUJ 070853Z AUTO 00000KT 10SM CLR 11/08 A3001 RMK AO2 SLP156 T01110083 53007 $

czas: 05:09 (09:09 UTC)

Prognoza

Raport powstał 3 godziny i 49 minut temu, godzina 05:20 UTC
Prognoza ważna od 07 godzina 06 UTC do 08 godzina 06 UTC
Wiatr 8 kt od północ
Widzialność: 10 km
bezchmurnie

TAF: KDUJ 070520Z 0706/0806 35008KT P6SM SKC

Obserwacja i prognoza pogody dla ponad 4000 lotnisk (raport METAR i TAF).

Dostępne stacje oznaczono żółtymi i czerwonymi punktami na mapie.

Najedź kursorem aby zobaczyć nazwę stacji.

Kliknij aby zobaczyć obserwacje i prognozy pogody.

Aby zmienić mapę: kliknij na zielony przycisk z czarnym krzyżykiem, aby powiększyć; na zielony przycisk z myślnikiem, aby pomniejszyć; na zielone strzałki, aby przejść do map sąsiednich.


METAR-TAF: